createdAt,value
2018-11-10T00:00:49.002Z,85.68
2018-11-10T00:05:41.663Z,85.70
2018-11-10T00:10:34.365Z,85.74
2018-11-10T00:15:27.321Z,85.82
2018-11-10T00:20:20.062Z,85.92
2018-11-10T00:25:13.727Z,85.64
2018-11-10T00:30:08.923Z,85.51
2018-11-10T00:35:01.829Z,85.71
2018-11-10T00:39:54.554Z,85.82
2018-11-10T00:44:47.210Z,85.71
2018-11-10T00:49:40.021Z,85.36
2018-11-10T00:54:32.787Z,85.66
2018-11-10T00:59:25.616Z,85.54
2018-11-10T01:04:18.314Z,85.67
2018-11-10T01:09:11.059Z,86.12
2018-11-10T01:14:03.928Z,85.70
2018-11-10T01:19:06.033Z,85.90
2018-11-10T01:29:04.456Z,85.58
2018-11-10T01:33:57.164Z,85.81
2018-11-10T01:38:49.907Z,85.94
2018-11-10T01:43:42.607Z,85.79
2018-11-10T01:48:35.312Z,85.80
2018-11-10T01:53:28.001Z,86.39
2018-11-10T01:58:20.698Z,86.16
2018-11-10T02:03:13.418Z,86.04
2018-11-10T02:08:06.250Z,86.50
2018-11-10T02:12:58.935Z,86.18
2018-11-10T02:17:51.634Z,86.22
2018-11-10T02:22:44.353Z,86.06
2018-11-10T02:27:37.080Z,86.29
2018-11-10T02:32:29.859Z,85.92
2018-11-10T02:37:22.534Z,86.04
2018-11-10T02:42:15.197Z,86.00
2018-11-10T02:47:07.945Z,85.85
2018-11-10T02:52:00.618Z,86.03
2018-11-10T02:56:53.351Z,85.81
2018-11-10T03:01:46.077Z,85.84
2018-11-10T03:06:38.818Z,85.70
2018-11-10T03:11:31.510Z,85.88
2018-11-10T03:16:24.274Z,85.84
2018-11-10T03:21:16.923Z,85.80
2018-11-10T03:26:09.610Z,85.63
2018-11-10T03:31:02.267Z,85.75
2018-11-10T03:35:54.985Z,85.91
2018-11-10T03:40:47.682Z,85.88
2018-11-10T03:45:40.379Z,85.98
2018-11-10T03:50:33.084Z,85.93
2018-11-10T03:55:25.751Z,85.74
2018-11-10T04:00:18.569Z,86.15
2018-11-10T04:05:12.190Z,85.92
2018-11-10T04:10:05.258Z,86.13
2018-11-10T04:14:57.964Z,86.11
2018-11-10T04:19:50.754Z,86.04
2018-11-10T04:24:43.439Z,86.27
2018-11-10T04:29:36.177Z,85.99
2018-11-10T04:34:28.819Z,86.40
2018-11-10T04:39:21.498Z,87.00
2018-11-10T04:44:14.176Z,87.12
2018-11-10T04:49:06.894Z,87.23
2018-11-10T04:53:59.542Z,87.56
2018-11-10T04:58:52.193Z,87.44
2018-11-10T05:03:44.904Z,87.30
2018-11-10T05:08:37.613Z,87.58
2018-11-10T05:13:30.463Z,87.70
2018-11-10T05:18:23.209Z,88.17
2018-11-10T05:23:15.962Z,88.06
2018-11-10T05:28:08.658Z,87.92
2018-11-10T05:33:01.458Z,88.80
2018-11-10T05:37:54.121Z,88.87
2018-11-10T05:42:46.784Z,89.41
2018-11-10T05:47:39.466Z,89.71
2018-11-10T05:52:32.159Z,89.68
2018-11-10T05:57:24.987Z,89.98
2018-11-10T06:02:17.637Z,90.11
2018-11-10T06:07:10.326Z,90.14
2018-11-10T06:12:03.072Z,89.85
2018-11-10T06:16:55.754Z,90.23
2018-11-10T06:21:48.485Z,90.46
2018-11-10T06:26:41.232Z,90.42
2018-11-10T06:31:33.834Z,90.78
2018-11-10T06:36:26.667Z,90.66
2018-11-10T06:41:19.578Z,90.20
2018-11-10T06:46:12.355Z,90.18
2018-11-10T06:51:05.092Z,90.64
2018-11-10T06:55:57.814Z,90.46
2018-11-10T07:00:50.578Z,90.50
2018-11-10T07:05:43.229Z,90.54
2018-11-10T07:10:35.928Z,90.84
2018-11-10T07:15:28.712Z,90.07
2018-11-10T07:20:21.697Z,90.44
2018-11-10T07:25:16.102Z,90.36
2018-11-10T07:30:11.444Z,90.21
2018-11-10T07:35:05.012Z,90.38
2018-11-10T07:39:57.868Z,90.62
2018-11-10T07:44:50.911Z,90.44
2018-11-10T07:49:43.877Z,90.37
2018-11-10T07:54:36.768Z,90.33
2018-11-10T07:59:29.683Z,90.53
2018-11-10T08:04:22.675Z,90.60
2018-11-10T08:09:15.660Z,90.83
2018-11-10T08:14:08.535Z,90.51
2018-11-10T08:19:01.579Z,90.18
2018-11-10T08:23:54.524Z,90.43
2018-11-10T08:28:47.448Z,89.92
2018-11-10T08:33:40.408Z,89.93
2018-11-10T08:38:33.388Z,90.26
2018-11-10T08:43:26.312Z,90.01
2018-11-10T08:48:19.108Z,89.95
2018-11-10T08:53:11.963Z,90.14
2018-11-10T08:58:05.456Z,89.84
2018-11-10T09:02:58.478Z,89.22
2018-11-10T09:07:51.575Z,89.41
2018-11-10T09:12:44.710Z,89.65
2018-11-10T09:17:37.780Z,89.47
2018-11-10T09:22:30.580Z,89.18
2018-11-10T09:27:25.290Z,89.08
2018-11-10T09:32:19.637Z,89.40
2018-11-10T09:37:14.918Z,89.23
2018-11-10T09:42:13.576Z,88.79
2018-11-10T09:47:06.693Z,88.49
2018-11-10T09:51:59.883Z,87.67
2018-11-10T09:56:54.869Z,87.48
2018-11-10T10:01:48.047Z,87.52
2018-11-10T10:06:40.636Z,87.52
2018-11-10T10:11:33.495Z,86.98
2018-11-10T10:16:26.512Z,86.47
2018-11-10T10:21:19.517Z,86.13
2018-11-10T10:26:12.410Z,85.59
2018-11-10T10:31:05.439Z,85.38
2018-11-10T10:35:58.454Z,84.80
2018-11-10T10:40:51.518Z,84.02
2018-11-10T10:45:44.371Z,83.31
2018-11-10T10:50:37.246Z,82.89
2018-11-10T10:55:30.101Z,82.06
2018-11-10T11:00:28.861Z,81.24
2018-11-10T11:05:28.048Z,81.26
2018-11-10T11:10:22.296Z,80.43
2018-11-10T11:15:15.061Z,79.69
2018-11-10T11:20:07.864Z,79.36
2018-11-10T11:25:00.755Z,79.06
2018-11-10T11:29:53.588Z,78.33
2018-11-10T11:34:46.369Z,78.49
2018-11-10T11:39:39.275Z,77.39
2018-11-10T11:44:32.110Z,75.75
2018-11-10T11:49:27.037Z,76.14
2018-11-10T11:54:19.826Z,74.09
2018-11-10T11:59:12.844Z,74.12
2018-11-10T12:04:10.874Z,73.80
2018-11-10T12:09:06.558Z,72.98
2018-11-10T12:13:59.338Z,72.98
2018-11-10T12:18:52.190Z,73.02
2018-11-10T12:23:44.982Z,72.40
2018-11-10T12:28:37.710Z,71.56
2018-11-10T12:33:30.466Z,71.09
2018-11-10T12:38:23.257Z,71.06
2018-11-10T12:43:15.961Z,70.61
2018-11-10T12:48:08.741Z,70.57
2018-11-10T12:53:02.062Z,70.19
2018-11-10T12:57:56.879Z,69.15
2018-11-10T13:02:49.901Z,69.15
2018-11-10T13:07:49.995Z,69.29
2018-11-10T13:12:43.635Z,68.54
2018-11-10T13:17:37.003Z,69.12
2018-11-10T13:22:30.213Z,68.37
2018-11-10T13:27:23.150Z,68.74
2018-11-10T13:32:16.096Z,68.96
2018-11-10T13:37:09.015Z,68.54
2018-11-10T13:42:03.155Z,68.15
2018-11-10T13:46:55.968Z,68.15
2018-11-10T13:51:49.559Z,68.33
2018-11-10T13:56:42.504Z,68.25
2018-11-10T14:01:35.326Z,68.16
2018-11-10T14:06:28.123Z,68.52
2018-11-10T14:11:20.978Z,68.07
2018-11-10T14:16:27.957Z,67.42
2018-11-10T14:21:21.579Z,68.83
2018-11-10T14:26:15.191Z,69.10
2018-11-10T14:31:08.260Z,68.78
2018-11-10T14:36:01.310Z,69.50
2018-11-10T14:40:54.230Z,69.00
2018-11-10T14:45:47.131Z,68.84
2018-11-10T14:50:39.911Z,68.70
2018-11-10T14:55:32.818Z,69.60
2018-11-10T15:00:27.831Z,70.00
2018-11-10T15:05:20.694Z,69.52
2018-11-10T15:10:14.830Z,69.93
2018-11-10T15:15:09.672Z,70.10
2018-11-10T15:20:02.570Z,70.16
2018-11-10T15:24:55.351Z,70.10
2018-11-10T15:29:48.445Z,70.18
2018-11-10T15:34:41.262Z,70.52
2018-11-10T15:39:34.246Z,70.78
2018-11-10T15:44:27.796Z,70.88
2018-11-10T15:49:20.587Z,71.22
2018-11-10T15:54:13.620Z,72.02
2018-11-10T15:59:06.427Z,71.43
2018-11-10T16:03:59.771Z,72.13
2018-11-10T16:09:10.920Z,72.42
2018-11-10T16:14:19.448Z,72.56
2018-11-10T16:19:32.515Z,72.42
2018-11-10T16:24:27.288Z,72.73
2018-11-10T16:29:20.883Z,73.05
2018-11-10T16:34:16.035Z,73.27
2018-11-10T17:23:25.472Z,75.85
2018-11-10T17:28:32.923Z,75.59
2018-11-10T17:33:34.572Z,75.96
2018-11-10T17:38:27.835Z,75.83
2018-11-10T17:43:21.070Z,76.55
2018-11-10T17:48:14.551Z,76.48
2018-11-10T17:53:07.880Z,76.46
2018-11-10T17:58:01.054Z,76.16
2018-11-10T18:02:53.889Z,77.07
2018-11-10T18:07:46.708Z,76.42
2018-11-10T18:12:39.604Z,76.48
2018-11-10T18:17:32.311Z,76.67
2018-11-10T18:22:24.981Z,77.08
2018-11-10T18:27:17.957Z,77.33
2018-11-10T18:32:10.850Z,77.83
2018-11-10T18:37:03.501Z,77.56
2018-11-10T18:41:56.096Z,77.58
2018-11-10T18:46:48.681Z,77.21
2018-11-10T18:51:41.317Z,77.20
2018-11-10T18:56:34.544Z,77.53
2018-11-10T19:01:27.401Z,77.53
2018-11-10T19:06:20.070Z,77.85
2018-11-10T19:11:12.706Z,77.93
2018-11-10T19:16:05.497Z,77.46
2018-11-10T19:20:58.195Z,77.21
2018-11-10T19:25:50.821Z,77.39
2018-11-10T19:30:43.471Z,77.67
2018-11-10T19:35:36.027Z,77.87
2018-11-10T19:40:28.640Z,77.59
2018-11-10T19:45:21.213Z,77.38
2018-11-10T19:50:14.279Z,77.44
2018-11-10T19:55:11.230Z,77.42
2018-11-10T20:00:09.066Z,77.00
2018-11-10T20:05:01.700Z,77.24
2018-11-10T20:09:54.295Z,77.65
2018-11-10T20:14:47.004Z,77.39
2018-11-10T20:19:39.712Z,77.44
2018-11-10T20:24:32.414Z,77.29
2018-11-10T20:29:25.072Z,77.69
2018-11-10T20:34:17.639Z,78.08
2018-11-10T20:39:10.636Z,77.48
2018-11-10T20:44:03.306Z,77.72
2018-11-10T20:48:55.999Z,78.11
2018-11-10T20:53:48.790Z,78.19
2018-11-10T20:58:41.436Z,78.41
2018-11-10T21:03:34.078Z,78.98
2018-11-10T21:08:26.772Z,78.73
2018-11-10T21:13:19.482Z,78.41
2018-11-10T21:18:12.106Z,79.11
2018-11-10T21:23:04.942Z,78.48
2018-11-10T21:27:57.593Z,78.85
2018-11-10T21:32:50.268Z,78.67
2018-11-10T21:37:42.916Z,78.90
2018-11-10T21:42:35.549Z,78.78
2018-11-10T21:47:28.233Z,79.12
2018-11-10T21:52:20.854Z,79.11
2018-11-10T21:57:13.494Z,79.33
2018-11-10T22:02:06.237Z,79.56
2018-11-10T22:06:59.173Z,79.90
2018-11-10T22:11:51.846Z,79.56
2018-11-10T22:16:44.742Z,79.74
2018-11-10T22:21:37.316Z,79.27
2018-11-10T22:26:29.963Z,79.34
2018-11-10T22:31:22.495Z,79.24
2018-11-10T22:36:15.077Z,79.82
2018-11-10T22:41:07.744Z,79.44
2018-11-10T22:46:00.319Z,79.09
2018-11-10T22:50:53.038Z,79.23
2018-11-10T22:55:45.820Z,79.16
2018-11-10T23:00:43.083Z,79.68
2018-11-10T23:05:35.661Z,79.55
2018-11-10T23:10:28.530Z,79.25
2018-11-10T23:15:21.196Z,79.36
2018-11-10T23:20:15.150Z,79.46
2018-11-10T23:25:09.962Z,79.46
2018-11-10T23:30:02.729Z,79.14
2018-11-10T23:34:55.318Z,79.27
2018-11-10T23:39:48.000Z,79.39
2018-11-10T23:44:40.654Z,79.43
2018-11-10T23:49:33.643Z,79.64
2018-11-10T23:54:26.391Z,79.45
2018-11-10T23:59:19.147Z,79.74
